sensor_id;sensor_type;location;lat;lon;timestamp;P1;durP1;ratioP1;P2;durP2;ratioP2
17763;SDS011;22245;52.832;13.816;2023-05-15T00:00:44;11.93;;;7.47;;
17763;SDS011;22245;52.832;13.816;2023-05-15T00:04:06;8.48;;;7.07;;
17763;SDS011;22245;52.832;13.816;2023-05-15T00:07:27;11.05;;;7.65;;
17763;SDS011;22245;52.832;13.816;2023-05-15T00:10:51;17.70;;;7.90;;
17763;SDS011;22245;52.832;13.816;2023-05-15T00:14:20;11.30;;;6.78;;
17763;SDS011;22245;52.832;13.816;2023-05-15T00:17:42;9.70;;;7.45;;
17763;SDS011;22245;52.832;13.816;2023-05-15T00:21:03;9.45;;;7.20;;
17763;SDS011;22245;52.832;13.816;2023-05-15T00:24:25;12.25;;;8.07;;
17763;SDS011;22245;52.832;13.816;2023-05-15T00:27:48;8.57;;;7.38;;
17763;SDS011;22245;52.832;13.816;2023-05-15T00:31:09;8.27;;;7.32;;
17763;SDS011;22245;52.832;13.816;2023-05-15T00:34:32;10.85;;;8.52;;
17763;SDS011;22245;52.832;13.816;2023-05-15T00:37:53;14.25;;;7.78;;
17763;SDS011;22245;52.832;13.816;2023-05-15T00:41:15;8.82;;;7.75;;
17763;SDS011;22245;52.832;13.816;2023-05-15T00:44:39;10.57;;;7.55;;
17763;SDS011;22245;52.832;13.816;2023-05-15T00:48:03;12.25;;;8.57;;
17763;SDS011;22245;52.832;13.816;2023-05-15T00:51:27;10.52;;;7.25;;
17763;SDS011;22245;52.832;13.816;2023-05-15T00:54:48;13.07;;;8.38;;
17763;SDS011;22245;52.832;13.816;2023-05-15T00:58:10;16.20;;;8.10;;
17763;SDS011;22245;52.832;13.816;2023-05-15T01:01:36;10.85;;;8.27;;
17763;SDS011;22245;52.832;13.816;2023-05-15T01:04:58;10.55;;;8.75;;
17763;SDS011;22245;52.832;13.816;2023-05-15T01:08:20;13.23;;;8.52;;
17763;SDS011;22245;52.832;13.816;2023-05-15T01:11:46;10.88;;;8.38;;
17763;SDS011;22245;52.832;13.816;2023-05-15T01:15:13;12.27;;;8.40;;
17763;SDS011;22245;52.832;13.816;2023-05-15T01:18:37;11.07;;;8.50;;
17763;SDS011;22245;52.832;13.816;2023-05-15T01:33:28;12.77;;;9.27;;
17763;SDS011;22245;52.832;13.816;2023-05-15T01:36:55;11.23;;;9.20;;
17763;SDS011;22245;52.832;13.816;2023-05-15T01:40:21;11.00;;;9.07;;
17763;SDS011;22245;52.832;13.816;2023-05-15T01:43:45;11.75;;;9.05;;
17763;SDS011;22245;52.832;13.816;2023-05-15T01:47:16;11.32;;;9.20;;
17763;SDS011;22245;52.832;13.816;2023-05-15T01:50:43;11.82;;;9.48;;
17763;SDS011;22245;52.832;13.816;2023-05-15T01:54:06;11.77;;;8.77;;
17763;SDS011;22245;52.832;13.816;2023-05-15T01:57:29;12.50;;;9.10;;
17763;SDS011;22245;52.832;13.816;2023-05-15T02:00:51;9.82;;;8.82;;
17763;SDS011;22245;52.832;13.816;2023-05-15T02:04:14;12.13;;;9.13;;
17763;SDS011;22245;52.832;13.816;2023-05-15T02:07:41;10.40;;;9.30;;
17763;SDS011;22245;52.832;13.816;2023-05-15T02:11:03;16.17;;;9.57;;
17763;SDS011;22245;52.832;13.816;2023-05-15T02:14:27;12.63;;;9.00;;
17763;SDS011;22245;52.832;13.816;2023-05-15T02:17:50;12.48;;;9.52;;
17763;SDS011;22245;52.832;13.816;2023-05-15T02:21:11;12.73;;;9.32;;
17763;SDS011;22245;52.832;13.816;2023-05-15T02:24:36;11.50;;;9.50;;
17763;SDS011;22245;52.832;13.816;2023-05-15T02:27:59;13.95;;;9.43;;
17763;SDS011;22245;52.832;13.816;2023-05-15T02:31:22;12.65;;;9.60;;
17763;SDS011;22245;52.832;13.816;2023-05-15T02:34:51;16.25;;;10.07;;
17763;SDS011;22245;52.832;13.816;2023-05-15T02:38:22;13.10;;;9.43;;
17763;SDS011;22245;52.832;13.816;2023-05-15T02:41:50;14.93;;;9.88;;
17763;SDS011;22245;52.832;13.816;2023-05-15T02:45:13;13.80;;;10.02;;
17763;SDS011;22245;52.832;13.816;2023-05-15T02:48:35;11.52;;;9.65;;
17763;SDS011;22245;52.832;13.816;2023-05-15T02:52:00;13.00;;;9.65;;
17763;SDS011;22245;52.832;13.816;2023-05-15T02:55:21;13.75;;;9.82;;
17763;SDS011;22245;52.832;13.816;2023-05-15T02:58:44;10.88;;;9.27;;
17763;SDS011;22245;52.832;13.816;2023-05-15T03:02:06;13.73;;;10.13;;
17763;SDS011;22245;52.832;13.816;2023-05-15T03:05:28;12.57;;;9.93;;
17763;SDS011;22245;52.832;13.816;2023-05-15T03:08:50;11.60;;;10.00;;
17763;SDS011;22245;52.832;13.816;2023-05-15T03:12:11;12.77;;;10.02;;
17763;SDS011;22245;52.832;13.816;2023-05-15T03:15:34;11.65;;;10.13;;
17763;SDS011;22245;52.832;13.816;2023-05-15T03:18:56;14.95;;;10.40;;
17763;SDS011;22245;52.832;13.816;2023-05-15T03:22:18;12.63;;;10.30;;
17763;SDS011;22245;52.832;13.816;2023-05-15T03:25:40;12.25;;;10.02;;
17763;SDS011;22245;52.832;13.816;2023-05-15T03:29:01;13.02;;;10.40;;
17763;SDS011;22245;52.832;13.816;2023-05-15T03:32:24;15.32;;;10.48;;
17763;SDS011;22245;52.832;13.816;2023-05-15T03:35:46;16.05;;;10.25;;
17763;SDS011;22245;52.832;13.816;2023-05-15T03:39:07;15.07;;;11.10;;
17763;SDS011;22245;52.832;13.816;2023-05-15T03:42:29;13.27;;;11.05;;
17763;SDS011;22245;52.832;13.816;2023-05-15T03:45:51;13.73;;;10.18;;
17763;SDS011;22245;52.832;13.816;2023-05-15T03:49:14;14.60;;;10.57;;
17763;SDS011;22245;52.832;13.816;2023-05-15T03:52:35;15.65;;;11.05;;
17763;SDS011;22245;52.832;13.816;2023-05-15T03:56:00;15.00;;;10.50;;
17763;SDS011;22245;52.832;13.816;2023-05-15T03:59:22;14.15;;;10.75;;
17763;SDS011;22245;52.832;13.816;2023-05-15T04:02:43;15.07;;;11.05;;
17763;SDS011;22245;52.832;13.816;2023-05-15T04:06:06;13.90;;;11.20;;
17763;SDS011;22245;52.832;13.816;2023-05-15T04:09:28;13.57;;;10.25;;
17763;SDS011;22245;52.832;13.816;2023-05-15T04:12:49;14.73;;;11.00;;
17763;SDS011;22245;52.832;13.816;2023-05-15T04:16:11;14.05;;;10.60;;
17763;SDS011;22245;52.832;13.816;2023-05-15T04:19:33;14.23;;;10.35;;
17763;SDS011;22245;52.832;13.816;2023-05-15T04:22:56;18.02;;;10.55;;
17763;SDS011;22245;52.832;13.816;2023-05-15T04:26:18;11.40;;;9.77;;
17763;SDS011;22245;52.832;13.816;2023-05-15T04:29:39;16.08;;;10.10;;
17763;SDS011;22245;52.832;13.816;2023-05-15T04:33:01;13.38;;;11.05;;
17763;SDS011;22245;52.832;13.816;2023-05-15T04:36:23;12.73;;;10.85;;
17763;SDS011;22245;52.832;13.816;2023-05-15T04:39:46;13.95;;;10.68;;
17763;SDS011;22245;52.832;13.816;2023-05-15T04:43:08;15.77;;;11.15;;
17763;SDS011;22245;52.832;13.816;2023-05-15T04:46:31;15.77;;;11.60;;
17763;SDS011;22245;52.832;13.816;2023-05-15T04:49:56;18.27;;;11.00;;
17763;SDS011;22245;52.832;13.816;2023-05-15T04:53:17;16.15;;;10.80;;
17763;SDS011;22245;52.832;13.816;2023-05-15T04:56:40;13.55;;;10.90;;
17763;SDS011;22245;52.832;13.816;2023-05-15T05:00:02;14.07;;;10.88;;
17763;SDS011;22245;52.832;13.816;2023-05-15T05:03:29;14.68;;;10.23;;
17763;SDS011;22245;52.832;13.816;2023-05-15T05:06:51;16.38;;;10.95;;
17763;SDS011;22245;52.832;13.816;2023-05-15T05:10:12;20.08;;;10.75;;
17763;SDS011;22245;52.832;13.816;2023-05-15T05:13:35;17.15;;;11.48;;
17763;SDS011;22245;52.832;13.816;2023-05-15T05:16:57;15.63;;;10.98;;
17763;SDS011;22245;52.832;13.816;2023-05-15T05:20:19;13.82;;;10.35;;
17763;SDS011;22245;52.832;13.816;2023-05-15T05:23:40;16.25;;;11.48;;
17763;SDS011;22245;52.832;13.816;2023-05-15T05:27:02;15.23;;;11.02;;
17763;SDS011;22245;52.832;13.816;2023-05-15T05:30:25;15.00;;;11.23;;
17763;SDS011;22245;52.832;13.816;2023-05-15T05:33:47;12.98;;;11.10;;
17763;SDS011;22245;52.832;13.816;2023-05-15T05:37:10;19.80;;;11.35;;
17763;SDS011;22245;52.832;13.816;2023-05-15T05:40:31;17.13;;;11.70;;
17763;SDS011;22245;52.832;13.816;2023-05-15T05:43:53;16.55;;;12.25;;
17763;SDS011;22245;52.832;13.816;2023-05-15T05:47:16;22.23;;;15.55;;
17763;SDS011;22245;52.832;13.816;2023-05-15T05:50:37;15.48;;;12.10;;
17763;SDS011;22245;52.832;13.816;2023-05-15T05:53:59;16.17;;;11.30;;
17763;SDS011;22245;52.832;13.816;2023-05-15T05:57:21;19.88;;;13.32;;
17763;SDS011;22245;52.832;13.816;2023-05-15T06:00:43;18.25;;;13.15;;
17763;SDS011;22245;52.832;13.816;2023-05-15T06:04:06;19.65;;;13.55;;
17763;SDS011;22245;52.832;13.816;2023-05-15T06:07:28;18.73;;;13.60;;
17763;SDS011;22245;52.832;13.816;2023-05-15T06:10:50;18.00;;;13.07;;
17763;SDS011;22245;52.832;13.816;2023-05-15T06:14:11;18.73;;;12.85;;
17763;SDS011;22245;52.832;13.816;2023-05-15T06:17:33;19.67;;;13.75;;
17763;SDS011;22245;52.832;13.816;2023-05-15T06:20:56;25.67;;;14.52;;
17763;SDS011;22245;52.832;13.816;2023-05-15T06:24:19;18.63;;;13.98;;
17763;SDS011;22245;52.832;13.816;2023-05-15T06:27:41;22.15;;;14.77;;
17763;SDS011;22245;52.832;13.816;2023-05-15T06:31:03;18.20;;;13.90;;
17763;SDS011;22245;52.832;13.816;2023-05-15T06:34:25;21.33;;;13.50;;
17763;SDS011;22245;52.832;13.816;2023-05-15T06:37:48;18.52;;;13.73;;
17763;SDS011;22245;52.832;13.816;2023-05-15T06:41:11;19.40;;;14.43;;
17763;SDS011;22245;52.832;13.816;2023-05-15T06:44:32;20.63;;;13.75;;
17763;SDS011;22245;52.832;13.816;2023-05-15T06:47:54;21.65;;;14.43;;
17763;SDS011;22245;52.832;13.816;2023-05-15T06:51:20;18.00;;;12.63;;
17763;SDS011;22245;52.832;13.816;2023-05-15T06:54:43;21.33;;;14.13;;
17763;SDS011;22245;52.832;13.816;2023-05-15T06:58:05;17.40;;;13.60;;
17763;SDS011;22245;52.832;13.816;2023-05-15T07:01:26;19.05;;;13.35;;
17763;SDS011;22245;52.832;13.816;2023-05-15T07:04:49;18.88;;;13.77;;
17763;SDS011;22245;52.832;13.816;2023-05-15T07:08:11;15.52;;;13.10;;
17763;SDS011;22245;52.832;13.816;2023-05-15T07:11:34;16.73;;;12.43;;
17763;SDS011;22245;52.832;13.816;2023-05-15T07:14:57;23.02;;;12.45;;
17763;SDS011;22245;52.832;13.816;2023-05-15T07:18:19;17.10;;;12.20;;
17763;SDS011;22245;52.832;13.816;2023-05-15T07:21:41;16.67;;;12.25;;
17763;SDS011;22245;52.832;13.816;2023-05-15T07:25:03;16.92;;;11.38;;
17763;SDS011;22245;52.832;13.816;2023-05-15T07:28:26;18.17;;;11.25;;
17763;SDS011;22245;52.832;13.816;2023-05-15T07:31:48;17.55;;;11.38;;
17763;SDS011;22245;52.832;13.816;2023-05-15T07:35:10;18.45;;;11.55;;
17763;SDS011;22245;52.832;13.816;2023-05-15T07:38:31;15.07;;;11.27;;
17763;SDS011;22245;52.832;13.816;2023-05-15T07:41:53;17.33;;;11.13;;
17763;SDS011;22245;52.832;13.816;2023-05-15T07:45:17;12.27;;;10.27;;
17763;SDS011;22245;52.832;13.816;2023-05-15T07:48:38;14.85;;;10.63;;
17763;SDS011;22245;52.832;13.816;2023-05-15T07:52:01;14.32;;;11.68;;
17763;SDS011;22245;52.832;13.816;2023-05-15T07:55:23;15.75;;;11.68;;
17763;SDS011;22245;52.832;13.816;2023-05-15T07:58:44;16.27;;;11.43;;
17763;SDS011;22245;52.832;13.816;2023-05-15T08:02:07;14.73;;;11.55;;
17763;SDS011;22245;52.832;13.816;2023-05-15T08:05:29;18.00;;;11.60;;
17763;SDS011;22245;52.832;13.816;2023-05-15T08:08:51;20.52;;;11.88;;
17763;SDS011;22245;52.832;13.816;2023-05-15T08:12:15;19.85;;;11.60;;
17763;SDS011;22245;52.832;13.816;2023-05-15T08:15:40;19.08;;;11.35;;
17763;SDS011;22245;52.832;13.816;2023-05-15T08:19:02;20.02;;;11.60;;
17763;SDS011;22245;52.832;13.816;2023-05-15T08:22:26;20.25;;;11.23;;
17763;SDS011;22245;52.832;13.816;2023-05-15T08:25:49;21.38;;;12.10;;
17763;SDS011;22245;52.832;13.816;2023-05-15T08:29:11;22.85;;;11.43;;
17763;SDS011;22245;52.832;13.816;2023-05-15T08:32:32;16.80;;;10.93;;
17763;SDS011;22245;52.832;13.816;2023-05-15T08:35:56;16.02;;;10.10;;
17763;SDS011;22245;52.832;13.816;2023-05-15T08:39:17;13.73;;;9.60;;
17763;SDS011;22245;52.832;13.816;2023-05-15T08:42:42;12.27;;;10.40;;
17763;SDS011;22245;52.832;13.816;2023-05-15T08:46:05;16.77;;;10.38;;
17763;SDS011;22245;52.832;13.816;2023-05-15T08:49:30;15.82;;;10.85;;
17763;SDS011;22245;52.832;13.816;2023-05-15T08:52:58;17.92;;;10.00;;
17763;SDS011;22245;52.832;13.816;2023-05-15T08:56:20;13.10;;;8.90;;
17763;SDS011;22245;52.832;13.816;2023-05-15T08:59:42;14.15;;;8.93;;
17763;SDS011;22245;52.832;13.816;2023-05-15T09:03:04;11.75;;;8.90;;
17763;SDS011;22245;52.832;13.816;2023-05-15T09:06:25;11.15;;;8.23;;
17763;SDS011;22245;52.832;13.816;2023-05-15T09:09:49;12.23;;;8.43;;
17763;SDS011;22245;52.832;13.816;2023-05-15T09:13:12;15.82;;;8.85;;
17763;SDS011;22245;52.832;13.816;2023-05-15T09:16:34;15.00;;;7.97;;
17763;SDS011;22245;52.832;13.816;2023-05-15T09:19:56;8.88;;;7.60;;
17763;SDS011;22245;52.832;13.816;2023-05-15T09:23:22;11.82;;;7.97;;
17763;SDS011;22245;52.832;13.816;2023-05-15T09:26:47;13.80;;;8.30;;
17763;SDS011;22245;52.832;13.816;2023-05-15T09:30:22;12.23;;;8.23;;
17763;SDS011;22245;52.832;13.816;2023-05-15T09:33:43;14.35;;;8.90;;
17763;SDS011;22245;52.832;13.816;2023-05-15T09:37:05;10.77;;;9.57;;
17763;SDS011;22245;52.832;13.816;2023-05-15T09:40:28;12.13;;;8.68;;
17763;SDS011;22245;52.832;13.816;2023-05-15T09:43:53;10.50;;;8.65;;
17763;SDS011;22245;52.832;13.816;2023-05-15T09:47:16;10.07;;;7.88;;
17763;SDS011;22245;52.832;13.816;2023-05-15T09:50:38;9.05;;;7.38;;
17763;SDS011;22245;52.832;13.816;2023-05-15T09:54:00;22.48;;;8.25;;
17763;SDS011;22245;52.832;13.816;2023-05-15T09:57:21;10.40;;;8.05;;
17763;SDS011;22245;52.832;13.816;2023-05-15T10:00:45;11.85;;;7.88;;
17763;SDS011;22245;52.832;13.816;2023-05-15T10:04:09;11.40;;;7.68;;
17763;SDS011;22245;52.832;13.816;2023-05-15T10:07:30;9.57;;;6.90;;
17763;SDS011;22245;52.832;13.816;2023-05-15T10:10:53;10.68;;;6.85;;
17763;SDS011;22245;52.832;13.816;2023-05-15T10:14:18;12.65;;;7.30;;
17763;SDS011;22245;52.832;13.816;2023-05-15T10:17:47;8.80;;;7.40;;
17763;SDS011;22245;52.832;13.816;2023-05-15T10:21:09;9.60;;;7.05;;
17763;SDS011;22245;52.832;13.816;2023-05-15T10:24:32;10.35;;;7.20;;
17763;SDS011;22245;52.832;13.816;2023-05-15T10:27:55;11.98;;;8.10;;
17763;SDS011;22245;52.832;13.816;2023-05-15T10:31:18;11.75;;;7.15;;
17763;SDS011;22245;52.832;13.816;2023-05-15T10:34:44;9.77;;;7.07;;
17763;SDS011;22245;52.832;13.816;2023-05-15T10:38:06;9.70;;;7.72;;
17763;SDS011;22245;52.832;13.816;2023-05-15T10:41:29;10.20;;;7.78;;
17763;SDS011;22245;52.832;13.816;2023-05-15T10:44:53;12.25;;;7.63;;
17763;SDS011;22245;52.832;13.816;2023-05-15T10:48:19;11.32;;;7.85;;
17763;SDS011;22245;52.832;13.816;2023-05-15T10:51:44;8.95;;;7.95;;
17763;SDS011;22245;52.832;13.816;2023-05-15T10:55:07;7.90;;;6.68;;
17763;SDS011;22245;52.832;13.816;2023-05-15T10:58:29;9.55;;;7.20;;
17763;SDS011;22245;52.832;13.816;2023-05-15T11:01:55;10.65;;;8.07;;
17763;SDS011;22245;52.832;13.816;2023-05-15T11:05:17;9.43;;;8.00;;
17763;SDS011;22245;52.832;13.816;2023-05-15T11:08:40;11.18;;;7.70;;
17763;SDS011;22245;52.832;13.816;2023-05-15T11:12:04;10.13;;;7.70;;
17763;SDS011;22245;52.832;13.816;2023-05-15T11:15:28;12.25;;;8.57;;
17763;SDS011;22245;52.832;13.816;2023-05-15T11:19:01;11.30;;;7.75;;
17763;SDS011;22245;52.832;13.816;2023-05-15T11:22:28;8.75;;;7.85;;
17763;SDS011;22245;52.832;13.816;2023-05-15T11:25:53;10.60;;;7.85;;
17763;SDS011;22245;52.832;13.816;2023-05-15T11:29:16;13.38;;;8.07;;
17763;SDS011;22245;52.832;13.816;2023-05-15T11:32:47;11.32;;;8.07;;
17763;SDS011;22245;52.832;13.816;2023-05-15T11:36:14;10.98;;;8.80;;
17763;SDS011;22245;52.832;13.816;2023-05-15T11:39:37;14.52;;;8.45;;
17763;SDS011;22245;52.832;13.816;2023-05-15T11:43:15;12.10;;;8.13;;
17763;SDS011;22245;52.832;13.816;2023-05-15T11:46:38;8.77;;;7.47;;
17763;SDS011;22245;52.832;13.816;2023-05-15T11:50:00;14.55;;;8.27;;
17763;SDS011;22245;52.832;13.816;2023-05-15T11:53:25;10.80;;;7.85;;
17763;SDS011;22245;52.832;13.816;2023-05-15T11:56:49;8.90;;;8.00;;
17763;SDS011;22245;52.832;13.816;2023-05-15T12:00:13;9.10;;;7.68;;
17763;SDS011;22245;52.832;13.816;2023-05-15T12:03:34;11.27;;;7.43;;
17763;SDS011;22245;52.832;13.816;2023-05-15T12:06:56;11.38;;;7.68;;
17763;SDS011;22245;52.832;13.816;2023-05-15T12:10:21;9.38;;;7.40;;
17763;SDS011;22245;52.832;13.816;2023-05-15T12:13:42;11.77;;;7.60;;
17763;SDS011;22245;52.832;13.816;2023-05-15T12:17:06;12.02;;;6.18;;
17763;SDS011;22245;52.832;13.816;2023-05-15T12:20:28;10.93;;;3.50;;
17763;SDS011;22245;52.832;13.816;2023-05-15T12:23:50;10.63;;;2.40;;
17763;SDS011;22245;52.832;13.816;2023-05-15T12:27:26;6.97;;;1.98;;
17763;SDS011;22245;52.832;13.816;2023-05-15T12:30:48;2.53;;;1.70;;
17763;SDS011;22245;52.832;13.816;2023-05-15T12:34:12;7.53;;;1.63;;
17763;SDS011;22245;52.832;13.816;2023-05-15T12:37:34;4.47;;;2.03;;
17763;SDS011;22245;52.832;13.816;2023-05-15T12:40:56;7.18;;;2.28;;
17763;SDS011;22245;52.832;13.816;2023-05-15T12:44:18;2.20;;;1.88;;
17763;SDS011;22245;52.832;13.816;2023-05-15T12:47:40;6.45;;;2.05;;
17763;SDS011;22245;52.832;13.816;2023-05-15T12:51:05;6.80;;;2.10;;
17763;SDS011;22245;52.832;13.816;2023-05-15T12:54:28;5.13;;;2.50;;
17763;SDS011;22245;52.832;13.816;2023-05-15T12:57:50;3.10;;;2.38;;
17763;SDS011;22245;52.832;13.816;2023-05-15T13:01:12;6.93;;;2.50;;
17763;SDS011;22245;52.832;13.816;2023-05-15T13:04:35;2.53;;;2.33;;
17763;SDS011;22245;52.832;13.816;2023-05-15T13:07:58;3.38;;;2.60;;
17763;SDS011;22245;52.832;13.816;2023-05-15T13:11:20;3.47;;;2.97;;
17763;SDS011;22245;52.832;13.816;2023-05-15T13:14:41;6.32;;;4.00;;
17763;SDS011;22245;52.832;13.816;2023-05-15T13:18:04;8.93;;;4.15;;
17763;SDS011;22245;52.832;13.816;2023-05-15T13:21:26;6.45;;;4.13;;
17763;SDS011;22245;52.832;13.816;2023-05-15T13:24:50;6.25;;;4.00;;
17763;SDS011;22245;52.832;13.816;2023-05-15T13:28:12;6.53;;;4.13;;
17763;SDS011;22245;52.832;13.816;2023-05-15T13:31:34;5.50;;;4.32;;
17763;SDS011;22245;52.832;13.816;2023-05-15T13:34:56;7.53;;;4.60;;
17763;SDS011;22245;52.832;13.816;2023-05-15T13:38:18;6.30;;;4.78;;
17763;SDS011;22245;52.832;13.816;2023-05-15T13:41:41;10.38;;;5.47;;
17763;SDS011;22245;52.832;13.816;2023-05-15T13:45:03;8.98;;;5.55;;
17763;SDS011;22245;52.832;13.816;2023-05-15T13:48:25;8.35;;;5.28;;
17763;SDS011;22245;52.832;13.816;2023-05-15T13:51:47;7.35;;;5.53;;
17763;SDS011;22245;52.832;13.816;2023-05-15T13:55:09;5.97;;;5.10;;
17763;SDS011;22245;52.832;13.816;2023-05-15T13:58:32;7.18;;;5.68;;
17763;SDS011;22245;52.832;13.816;2023-05-15T14:01:54;5.75;;;5.25;;
17763;SDS011;22245;52.832;13.816;2023-05-15T14:05:15;9.85;;;6.07;;
17763;SDS011;22245;52.832;13.816;2023-05-15T14:08:37;8.13;;;6.03;;
17763;SDS011;22245;52.832;13.816;2023-05-15T14:11:59;8.68;;;6.35;;
17763;SDS011;22245;52.832;13.816;2023-05-15T14:15:22;7.85;;;6.00;;
17763;SDS011;22245;52.832;13.816;2023-05-15T14:18:44;11.07;;;7.28;;
17763;SDS011;22245;52.832;13.816;2023-05-15T14:22:05;8.95;;;6.03;;
17763;SDS011;22245;52.832;13.816;2023-05-15T14:25:27;6.40;;;5.15;;
17763;SDS011;22245;52.832;13.816;2023-05-15T14:28:48;6.60;;;5.30;;
17763;SDS011;22245;52.832;13.816;2023-05-15T14:32:11;6.65;;;5.43;;
17763;SDS011;22245;52.832;13.816;2023-05-15T14:35:33;8.73;;;5.68;;
17763;SDS011;22245;52.832;13.816;2023-05-15T14:38:55;6.47;;;5.53;;
17763;SDS011;22245;52.832;13.816;2023-05-15T14:42:19;8.48;;;5.55;;
17763;SDS011;22245;52.832;13.816;2023-05-15T14:45:41;7.13;;;5.28;;
17763;SDS011;22245;52.832;13.816;2023-05-15T14:49:04;6.13;;;5.15;;
17763;SDS011;22245;52.832;13.816;2023-05-15T14:52:26;7.50;;;5.85;;
17763;SDS011;22245;52.832;13.816;2023-05-15T14:55:48;6.72;;;5.43;;
17763;SDS011;22245;52.832;13.816;2023-05-15T14:59:09;8.07;;;5.82;;
17763;SDS011;22245;52.832;13.816;2023-05-15T15:02:33;9.57;;;5.65;;
17763;SDS011;22245;52.832;13.816;2023-05-15T15:05:56;9.45;;;6.10;;
17763;SDS011;22245;52.832;13.816;2023-05-15T15:09:18;7.20;;;6.28;;
17763;SDS011;22245;52.832;13.816;2023-05-15T15:12:40;8.63;;;6.50;;
17763;SDS011;22245;52.832;13.816;2023-05-15T15:16:02;8.35;;;6.20;;
17763;SDS011;22245;52.832;13.816;2023-05-15T15:19:24;8.88;;;6.43;;
17763;SDS011;22245;52.832;13.816;2023-05-15T15:22:47;7.72;;;6.00;;
17763;SDS011;22245;52.832;13.816;2023-05-15T15:26:09;7.00;;;6.20;;
17763;SDS011;22245;52.832;13.816;2023-05-15T15:29:31;6.68;;;5.82;;
17763;SDS011;22245;52.832;13.816;2023-05-15T15:32:53;10.98;;;6.30;;
17763;SDS011;22245;52.832;13.816;2023-05-15T15:36:14;7.75;;;6.22;;
17763;SDS011;22245;52.832;13.816;2023-05-15T15:39:38;10.82;;;5.82;;
17763;SDS011;22245;52.832;13.816;2023-05-15T15:42:59;7.43;;;5.90;;
17763;SDS011;22245;52.832;13.816;2023-05-15T15:46:21;16.60;;;6.22;;
17763;SDS011;22245;52.832;13.816;2023-05-15T15:49:43;7.03;;;5.72;;
17763;SDS011;22245;52.832;13.816;2023-05-15T15:53:05;8.23;;;6.07;;
17763;SDS011;22245;52.832;13.816;2023-05-15T15:56:28;6.32;;;5.72;;
17763;SDS011;22245;52.832;13.816;2023-05-15T15:59:50;7.43;;;5.93;;
17763;SDS011;22245;52.832;13.816;2023-05-15T16:03:11;7.18;;;5.93;;
17763;SDS011;22245;52.832;13.816;2023-05-15T16:06:33;8.60;;;5.70;;
17763;SDS011;22245;52.832;13.816;2023-05-15T16:09:54;6.28;;;5.32;;
17763;SDS011;22245;52.832;13.816;2023-05-15T16:13:32;7.63;;;5.78;;
17763;SDS011;22245;52.832;13.816;2023-05-15T16:16:54;6.72;;;5.85;;
17763;SDS011;22245;52.832;13.816;2023-05-15T16:20:16;7.05;;;5.10;;
17763;SDS011;22245;52.832;13.816;2023-05-15T16:23:38;8.10;;;5.30;;
17763;SDS011;22245;52.832;13.816;2023-05-15T16:27:00;7.05;;;5.20;;
17763;SDS011;22245;52.832;13.816;2023-05-15T16:30:23;6.45;;;5.72;;
17763;SDS011;22245;52.832;13.816;2023-05-15T16:33:59;6.88;;;5.60;;
17763;SDS011;22245;52.832;13.816;2023-05-15T16:37:22;6.55;;;5.25;;
17763;SDS011;22245;52.832;13.816;2023-05-15T16:40:44;6.22;;;4.97;;
17763;SDS011;22245;52.832;13.816;2023-05-15T16:44:06;6.03;;;5.15;;
17763;SDS011;22245;52.832;13.816;2023-05-15T16:47:31;6.65;;;5.07;;
17763;SDS011;22245;52.832;13.816;2023-05-15T16:50:53;8.43;;;5.78;;
17763;SDS011;22245;52.832;13.816;2023-05-15T16:54:14;8.77;;;5.35;;
17763;SDS011;22245;52.832;13.816;2023-05-15T16:57:36;7.72;;;5.28;;
17763;SDS011;22245;52.832;13.816;2023-05-15T17:00:58;7.25;;;4.90;;
17763;SDS011;22245;52.832;13.816;2023-05-15T17:04:21;5.30;;;4.80;;
17763;SDS011;22245;52.832;13.816;2023-05-15T17:07:43;6.35;;;4.90;;
17763;SDS011;22245;52.832;13.816;2023-05-15T17:11:04;7.05;;;5.18;;
17763;SDS011;22245;52.832;13.816;2023-05-15T17:14:26;6.13;;;5.10;;
17763;SDS011;22245;52.832;13.816;2023-05-15T17:17:47;6.60;;;5.25;;
17763;SDS011;22245;52.832;13.816;2023-05-15T17:21:11;5.65;;;5.15;;
17763;SDS011;22245;52.832;13.816;2023-05-15T17:24:32;5.72;;;5.13;;
17763;SDS011;22245;52.832;13.816;2023-05-15T17:28:10;6.25;;;5.25;;
17763;SDS011;22245;52.832;13.816;2023-05-15T17:31:31;6.03;;;5.40;;
17763;SDS011;22245;52.832;13.816;2023-05-15T17:34:54;7.72;;;5.63;;
17763;SDS011;22245;52.832;13.816;2023-05-15T17:38:17;7.88;;;5.90;;
17763;SDS011;22245;52.832;13.816;2023-05-15T17:41:39;7.25;;;6.40;;
17763;SDS011;22245;52.832;13.816;2023-05-15T17:45:00;10.20;;;7.85;;
17763;SDS011;22245;52.832;13.816;2023-05-15T17:48:22;8.02;;;6.38;;
17763;SDS011;22245;52.832;13.816;2023-05-15T17:51:44;8.18;;;6.60;;
17763;SDS011;22245;52.832;13.816;2023-05-15T17:55:07;9.63;;;6.40;;
17763;SDS011;22245;52.832;13.816;2023-05-15T17:58:30;9.20;;;7.25;;
17763;SDS011;22245;52.832;13.816;2023-05-15T18:01:52;7.63;;;6.85;;
17763;SDS011;22245;52.832;13.816;2023-05-15T18:05:14;9.18;;;7.60;;
17763;SDS011;22245;52.832;13.816;2023-05-15T18:08:36;7.60;;;6.88;;
17763;SDS011;22245;52.832;13.816;2023-05-15T18:11:58;8.35;;;6.72;;
17763;SDS011;22245;52.832;13.816;2023-05-15T18:15:20;8.23;;;7.03;;
17763;SDS011;22245;52.832;13.816;2023-05-15T18:18:42;9.63;;;7.40;;
17763;SDS011;22245;52.832;13.816;2023-05-15T18:22:04;8.07;;;6.90;;
17763;SDS011;22245;52.832;13.816;2023-05-15T18:25:25;8.00;;;6.93;;
17763;SDS011;22245;52.832;13.816;2023-05-15T18:28:48;10.23;;;7.13;;
17763;SDS011;22245;52.832;13.816;2023-05-15T18:32:10;9.90;;;7.78;;
17763;SDS011;22245;52.832;13.816;2023-05-15T18:35:32;7.80;;;7.00;;
17763;SDS011;22245;52.832;13.816;2023-05-15T18:38:54;8.15;;;6.97;;
17763;SDS011;22245;52.832;13.816;2023-05-15T18:42:15;8.73;;;6.80;;
17763;SDS011;22245;52.832;13.816;2023-05-15T18:45:38;7.53;;;6.65;;
17763;SDS011;22245;52.832;13.816;2023-05-15T18:49:00;8.80;;;7.13;;
17763;SDS011;22245;52.832;13.816;2023-05-15T18:52:22;8.38;;;6.78;;
17763;SDS011;22245;52.832;13.816;2023-05-15T18:55:45;7.40;;;6.70;;
17763;SDS011;22245;52.832;13.816;2023-05-15T18:59:08;8.95;;;6.82;;
17763;SDS011;22245;52.832;13.816;2023-05-15T19:02:31;8.85;;;6.82;;
17763;SDS011;22245;52.832;13.816;2023-05-15T19:05:53;8.43;;;6.93;;
17763;SDS011;22245;52.832;13.816;2023-05-15T19:09:17;7.78;;;6.85;;
17763;SDS011;22245;52.832;13.816;2023-05-15T19:12:38;8.13;;;6.63;;
17763;SDS011;22245;52.832;13.816;2023-05-15T19:16:00;9.88;;;6.35;;
17763;SDS011;22245;52.832;13.816;2023-05-15T19:19:24;7.13;;;6.22;;
17763;SDS011;22245;52.832;13.816;2023-05-15T19:22:46;8.15;;;6.75;;
17763;SDS011;22245;52.832;13.816;2023-05-15T19:26:07;8.63;;;6.13;;
17763;SDS011;22245;52.832;13.816;2023-05-15T19:29:29;8.52;;;7.28;;
17763;SDS011;22245;52.832;13.816;2023-05-15T19:32:52;9.27;;;7.20;;
17763;SDS011;22245;52.832;13.816;2023-05-15T19:36:16;11.77;;;7.10;;
17763;SDS011;22245;52.832;13.816;2023-05-15T19:39:38;7.32;;;6.47;;
17763;SDS011;22245;52.832;13.816;2023-05-15T19:43:00;8.02;;;7.22;;
17763;SDS011;22245;52.832;13.816;2023-05-15T19:46:22;8.65;;;7.25;;
17763;SDS011;22245;52.832;13.816;2023-05-15T19:49:43;7.43;;;6.60;;
17763;SDS011;22245;52.832;13.816;2023-05-15T19:53:06;8.55;;;6.95;;
17763;SDS011;22245;52.832;13.816;2023-05-15T19:56:30;7.55;;;6.75;;
17763;SDS011;22245;52.832;13.816;2023-05-15T19:59:51;7.75;;;6.63;;